Adriatic Princess — IVPQ — position and weather

sailwx.info

Track history (hours):
 
Tides and Currents Weather Stations Pressure Air Temp Water Temp Dewpoint Dewpoint Depression Visibility Wind Speed Wind Dir Waves Ship Positions

Adriatic Princess

Last reported at 2015-May-25 10:33 UTC. Time now 2015-May-25 11:26 UTC.
Position N 40°46' E 014°01'.

Length 32 m; draft 1.8 m.

Type: Passenger vessel. MMSI: 247165700.

Date/timePositionNaut miles runAvg speedWind from/ knotsBaromVisibWave heightAir tempDewpointWater temp
2015-May-25 10:33N 40°46' E 014°01'0 0.0
2015-May-25 09:33N 40°46' E 014°01'6 5.6
2015-May-25 08:32N 40°49' E 014°07'9 9.6
2015-May-25 07:33N 40°45' E 013°56'8 8.2
2015-May-25 06:33N 40°48' E 014°06'1 1.4
2015-May-25 05:33N 40°49' E 014°07'0 0.0
2015-May-25 04:33N 40°49' E 014°07'0 0.0
2015-May-25 03:33N 40°49' E 014°07'0 0.0
2015-May-25 02:33N 40°49' E 014°07'0 0.0
2015-May-25 01:31N 40°49' E 014°07'0 0.0
2015-May-25 00:33N 40°49' E 014°07'0 0.0
2015-May-24 23:33N 40°49' E 014°07'0 0.0
2015-May-24 22:33N 40°49' E 014°07'0 0.0
2015-May-24 21:33N 40°49' E 014°07'0 0.0
2015-May-24 20:34N 40°49' E 014°07'0 0.0
2015-May-24 19:33N 40°49' E 014°07'0 0.0
2015-May-24 18:33N 40°49' E 014°07'1 0.9
2015-May-24 17:33N 40°49' E 014°06'8 7.6
2015-May-24 16:33N 40°45' E 013°57'7 7.3
2015-May-24 15:33N 40°48' E 014°06'8 8.3
2015-May-24 14:33N 40°45' E 013°56'0 0.0
2015-May-24 13:33N 40°45' E 013°56'0 0.0
2015-May-24 12:34N 40°45' E 013°56'6 6.0
2015-May-24 11:33N 40°46' E 014°04'3 2.6
2015-May-24 10:33N 40°46' E 014°01'1 1.5
2015-May-24 09:33N 40°46' E 014°03'5 4.6
2015-May-24 08:33N 40°49' E 014°07'9 9.5
2015-May-24 07:33N 40°45' E 013°56'8 8.1
2015-May-24 06:33N 40°48' E 014°06'2 1.6
2015-May-24 05:33N 40°49' E 014°07'0 0.0
2015-May-24 04:33N 40°49' E 014°07'0 0.0
2015-May-24 03:33N 40°49' E 014°07'0 0.0
2015-May-24 02:33N 40°49' E 014°07'0 0.0
2015-May-24 01:33N 40°49' E 014°07'0 0.0
2015-May-24 00:33N 40°49' E 014°07'0 0.0
2015-May-23 23:33N 40°49' E 014°07'0 0.0
2015-May-23 22:33N 40°49' E 014°07'0 0.0
2015-May-23 21:33N 40°49' E 014°07'0 0.0
2015-May-23 20:33N 40°49' E 014°07'0 0.0
2015-May-23 19:33N 40°49' E 014°07'0 0.0
2015-May-23 18:33N 40°49' E 014°07'1 0.5
2015-May-23 17:33N 40°49' E 014°06'9 8.9
2015-May-23 16:33N 40°45' E 013°56'9 8.7
2015-May-23 15:33N 40°49' E 014°06'9 8.9
2015-May-23 14:33N 40°45' E 013°56'0 0.0
2015-May-23 13:33N 40°45' E 013°56'0 0.0
2015-May-23 12:33N 40°45' E 013°56'7 6.9
2015-May-23 11:33N 40°47' E 014°05'4 3.6
2015-May-23 10:33N 40°46' E 014°00'1 0.7
2015-May-23 09:33N 40°46' E 014°01'5 5.4
2015-May-23 08:33N 40°49' E 014°07'9 9.4
2015-May-23 07:33N 40°45' E 013°56'8 7.9
2015-May-23 06:33N 40°48' E 014°06'2 1.9
2015-May-23 05:33N 40°49' E 014°07'0 0.0
2015-May-23 04:33N 40°49' E 014°07'0 0.0
2015-May-23 03:31N 40°49' E 014°07'0 0.0
2015-May-23 02:33N 40°49' E 014°07'0 0.0
2015-May-23 01:33N 40°49' E 014°07'0 0.0
2015-May-23 00:33N 40°49' E 014°07'0 0.0
2015-May-22 23:33N 40°49' E 014°07'0 0.0
2015-May-22 22:33N 40°49' E 014°07'9 1.0
2015-May-22 13:34N 40°45' E 013°56'0 0.0
2015-May-22 12:33N 40°45' E 013°56'6 6.2
2015-May-22 11:33N 40°47' E 014°04'3 3.0
2015-May-22 10:33N 40°46' E 014°00'0 0.4
2015-May-22 09:33N 40°46' E 014°01'5 5.3
2015-May-22 08:32N 40°49' E 014°07'9 9.3
2015-May-22 07:33N 40°45' E 013°56'8 8.2
2015-May-22 06:33N 40°48' E 014°06'1 1.4
2015-May-22 05:33N 40°49' E 014°07'0 0.0
2015-May-22 04:33N 40°49' E 014°07'0 0.0
2015-May-22 03:33N 40°49' E 014°07'0 0.0
2015-May-22 02:33N 40°49' E 014°07'0 0.0
2015-May-22 01:33N 40°49' E 014°07'0 0.0
2015-May-22 00:33N 40°49' E 014°07'0 0.0
2015-May-21 23:33N 40°49' E 014°07'0 0.0
2015-May-21 22:33N 40°49' E 014°07'0 0.0
2015-May-21 21:33N 40°49' E 014°07'0 0.0
2015-May-21 20:32N 40°49' E 014°07'0 0.0
2015-May-21 19:33N 40°49' E 014°07'0 0.0
2015-May-21 18:34N 40°49' E 014°07'0 0.0
2015-May-21 17:33N 40°49' E 014°07'0 0.0
2015-May-21 16:33N 40°49' E 014°07'0 0.0
2015-May-21 15:33N 40°49' E 014°07'0 0.0
2015-May-21 14:33N 40°49' E 014°07'0 0.0
2015-May-21 13:34N 40°49' E 014°07'0 0.0
2015-May-21 12:34N 40°49' E 014°07'0 0.0
2015-May-21 11:33N 40°49' E 014°07'0 0.0
2015-May-21 10:33N 40°49' E 014°07'0 0.0
2015-May-21 09:32N 40°49' E 014°07'0 0.4
2015-May-21 08:33N 40°49' E 014°07'9 9.2
2015-May-21 07:33N 40°45' E 013°56'8 8.3
2015-May-21 06:33N 40°48' E 014°06'1 1.4
2015-May-21 05:33N 40°49' E 014°07'0 0.0
2015-May-21 04:33N 40°49' E 014°07'0 0.0
2015-May-21 03:33N 40°49' E 014°07'0 0.0
2015-May-21 02:33N 40°49' E 014°07'0 0.0
2015-May-21 01:33N 40°49' E 014°07'0 0.0
2015-May-21 00:33N 40°49' E 014°07'0 0.0
2015-May-20 23:33N 40°49' E 014°07'0 0.0
2015-May-20 22:33N 40°49' E 014°07'0 0.0
2015-May-20 21:33N 40°49' E 014°07'0 0.0
2015-May-20 20:33N 40°49' E 014°07'0 0.0
2015-May-20 19:33N 40°49' E 014°07'0 0.0
2015-May-20 18:33N 40°49' E 014°07'0 0.4
2015-May-20 17:33N 40°49' E 014°07'9 9.0
2015-May-20 16:33N 40°45' E 013°56'9 8.6
2015-May-20 15:33N 40°49' E 014°06'9 8.8
2015-May-20 14:33N 40°45' E 013°56'0 0.0
2015-May-20 13:33N 40°45' E 013°56'0 0.0
2015-May-20 12:33N 40°45' E 013°56'7 6.6
2015-May-20 11:33N 40°47' E 014°05'3 3.4
2015-May-20 10:33N 40°46' E 014°00'1 0.9
2015-May-20 09:33N 40°46' E 014°01'5 4.6
2015-May-20 08:30N 40°49' E 014°06'9 9.6
2015-May-20 07:33N 40°45' E 013°56'8 8.0
2015-May-20 06:33N 40°48' E 014°06'2 1.6
2015-May-20 05:33N 40°49' E 014°07'0 0.0
2015-May-20 04:33N 40°49' E 014°07'0 0.0
2015-May-20 03:33N 40°49' E 014°07'0 0.0
2015-May-20 02:31N 40°49' E 014°07'0 0.0
2015-May-20 01:33N 40°49' E 014°07'0 0.0
2015-May-20 00:30N 40°49' E 014°07'0 0.0
2015-May-19 23:33N 40°49' E 014°07'0 0.0
2015-May-19 22:33N 40°49' E 014°07'0 0.0
2015-May-19 21:34N 40°49' E 014°07'0 0.0
2015-May-19 20:33N 40°49' E 014°07'0 0.0
2015-May-19 19:32N 40°49' E 014°07'0 0.0
2015-May-19 18:33N 40°49' E 014°07'0 0.5
2015-May-19 17:33N 40°49' E 014°06'9 8.9
2015-May-19 16:33N 40°45' E 013°56'9 8.8
2015-May-19 15:33N 40°49' E 014°06'9 8.9
2015-May-19 14:33N 40°45' E 013°56'0 0.0
2015-May-19 13:32N 40°45' E 013°56'0 0.0
2015-May-19 12:34N 40°45' E 013°56'6 6.3
2015-May-19 11:33N 40°47' E 014°04'3 2.9
2015-May-19 10:33N 40°46' E 014°01'2 1.8
2015-May-19 09:33N 40°46' E 014°03'4 4.2
2015-May-19 08:33N 40°49' E 014°07'9 9.2
2015-May-19 07:33N 40°45' E 013°56'8 8.1
2015-May-19 06:33N 40°48' E 014°06'2 1.7
2015-May-19 05:33N 40°49' E 014°07'0 0.0
2015-May-19 04:32N 40°49' E 014°07'0 0.0
2015-May-19 03:33N 40°49' E 014°07'0 0.0
2015-May-19 02:33N 40°49' E 014°07'0 0.0
2015-May-19 01:33N 40°49' E 014°07'0 0.0
2015-May-19 00:33N 40°49' E 014°07'0 0.0
2015-May-18 23:33N 40°49' E 014°07'0 0.0
2015-May-18 22:33N 40°49' E 014°07'0 0.0
2015-May-18 21:33N 40°49' E 014°07'0 0.0
2015-May-18 20:33N 40°49' E 014°07'0 0.0
2015-May-18 19:33N 40°49' E 014°07'0 0.0
2015-May-18 18:33N 40°49' E 014°07'1 0.5
2015-May-18 17:33N 40°49' E 014°06'9 8.8
2015-May-18 16:33N 40°45' E 013°56'9 8.9
2015-May-18 15:33N 40°49' E 014°06'9 8.9
2015-May-18 14:33N 40°45' E 013°56'0 0.0
2015-May-18 13:33N 40°45' E 013°56'0 0.0
2015-May-18 12:33N 40°45' E 013°56'7 6.6
2015-May-18 11:33N 40°47' E 014°05'4 3.6
2015-May-18 10:33N 40°46' E 013°60'4 3.9
2015-May-18 09:33N 40°47' E 014°05'3 3.2
2015-May-18 08:33N 40°49' E 014°07'9 9.4
2015-May-18 07:32N 40°45' E 013°56'8 8.2
2015-May-18 06:32N 40°48' E 014°06'1 1.5
2015-May-18 05:33N 40°49' E 014°07'0 0.0
2015-May-18 04:33N 40°49' E 014°07'0 0.0
2015-May-18 03:33N 40°49' E 014°07'0 0.0
2015-May-18 02:33N 40°49' E 014°07'0 0.0
2015-May-18 01:33N 40°49' E 014°07'0 0.0
2015-May-18 00:31N 40°49' E 014°07'0 0.0
2015-May-17 23:33N 40°49' E 014°07'0 0.0
2015-May-17 22:33N 40°49' E 014°07'0 0.0
2015-May-17 21:33N 40°49' E 014°07'0 0.0
2015-May-17 20:33N 40°49' E 014°07'0 0.0
2015-May-17 19:32N 40°49' E 014°07'0 0.0
2015-May-17 18:33N 40°49' E 014°07'0 0.3
2015-May-17 17:33N 40°49' E 014°07'9 8.7
2015-May-17 16:34N 40°45' E 013°57'8 8.0
2015-May-17 15:33N 40°49' E 014°06'8 8.5
2015-May-17 14:33N 40°45' E 013°56'0 0.0
2015-May-17 13:34N 40°45' E 013°56'0 0.0
2015-May-17 12:34N 40°45' E 013°56'8 7.6
2015-May-17 11:34N 40°47' E 014°06'4 3.8
2015-May-17 10:34N 40°46' E 014°01'0 0.1
2015-May-17 09:32N 40°46' E 014°01'6 5.7
2015-May-17 08:33N 40°49' E 014°07'9 9.4
2015-May-17 07:33N 40°45' E 013°56'8 8.2
2015-May-17 06:33N 40°48' E 014°06'1 1.5
2015-May-17 05:33N 40°49' E 014°07'0 0.0
2015-May-17 04:33N 40°49' E 014°07'0 0.0
2015-May-17 03:33N 40°49' E 014°07'0 0.0
2015-May-17 02:33N 40°49' E 014°07'0 0.0
2015-May-17 01:33N 40°49' E 014°07'0 0.0
2015-May-17 00:33N 40°49' E 014°07'0 0.0
2015-May-16 23:32N 40°49' E 014°07'0 0.0
2015-May-16 22:33N 40°49' E 014°07'0 0.0
2015-May-16 21:33N 40°49' E 014°07'0 0.0
2015-May-16 20:34N 40°49' E 014°07'0 0.0
2015-May-16 19:33N 40°49' E 014°07'0 0.0
2015-May-16 18:33N 40°49' E 014°07'1 0.7
2015-May-16 17:32N 40°49' E 014°06'8 7.7
2015-May-16 16:33N 40°45' E 013°58'7 7.3
2015-May-16 15:33N 40°48' E 014°06'8 8.3
2015-May-16 14:33N 40°45' E 013°56'0 0.0
2015-May-16 13:33N 40°45' E 013°56'0 0.0
2015-May-16 12:33N 40°45' E 013°56'6 6.3
2015-May-16 11:33N 40°46' E 014°04'4 3.7
2015-May-16 10:33N 40°44' E 014°00'1 1.1
2015-May-16 09:34N 40°45' E 014°02'6 5.9
2015-May-16 08:33N 40°49' E 014°07'9 9.1
2015-May-16 07:33N 40°45' E 013°56'9 8.6
2015-May-16 06:33N 40°49' E 014°06'1 0.9
2015-May-16 05:33N 40°49' E 014°07'0 0.0
2015-May-16 04:32N 40°49' E 014°07'0 0.0
2015-May-16 03:33N 40°49' E 014°07'0 0.0
2015-May-16 02:33N 40°49' E 014°07'0 0.0
2015-May-16 01:32N 40°49' E 014°07'0 0.0
2015-May-16 00:32N 40°49' E 014°07'0 0.0
2015-May-15 23:33N 40°49' E 014°07'0 0.0
2015-May-15 22:33N 40°49' E 014°07'0 0.0
2015-May-15 21:33N 40°49' E 014°07'0 0.0
2015-May-15 20:33N 40°49' E 014°07'0 0.0
2015-May-15 19:31N 40°49' E 014°07'0 0.0
2015-May-15 18:33N 40°49' E 014°07'1 0.7
2015-May-15 17:33N 40°49' E 014°06'9 8.7
2015-May-15 16:33N 40°45' E 013°56'9 9.0
2015-May-15 15:33N 40°49' E 014°07'9 9.0
2015-May-15 14:33N 40°45' E 013°56'0 0.0
2015-May-15 13:33N 40°45' E 013°56'0 0.0
2015-May-15 12:33N 40°45' E 013°56'8 8.3
2015-May-15 11:33N 40°48' E 014°06'5 5.5
2015-May-15 10:34N 40°46' E 013°60'  
Track history (hours):
 
Tides and Currents Weather Stations Pressure Air Temp Water Temp Dewpoint Dewpoint Depression Visibility Wind Speed Wind Dir Waves Ship Positions

Adriatic Princess

Last reported at 2015-May-25 10:33 UTC. Time now 2015-May-25 11:26 UTC.
Position N 40°46' E 014°01'.

Length 32 m; draft 1.8 m.

Type: Passenger vessel. MMSI: 247165700.

Date/timePositionNaut miles runAvg speedWind from/ knotsBaromVisibWave heightAir tempDewpointWater temp
2015-May-25 10:33N 40°46' E 014°01'0 0.0
2015-May-25 09:33N 40°46' E 014°01'6 5.6
2015-May-25 08:32N 40°49' E 014°07'9 9.6
2015-May-25 07:33N 40°45' E 013°56'8 8.2
2015-May-25 06:33N 40°48' E 014°06'1 1.4
2015-May-25 05:33N 40°49' E 014°07'0 0.0
2015-May-25 04:33N 40°49' E 014°07'0 0.0
2015-May-25 03:33N 40°49' E 014°07'0 0.0
2015-May-25 02:33N 40°49' E 014°07'0 0.0
2015-May-25 01:31N 40°49' E 014°07'0 0.0
2015-May-25 00:33N 40°49' E 014°07'0 0.0
2015-May-24 23:33N 40°49' E 014°07'0 0.0
2015-May-24 22:33N 40°49' E 014°07'0 0.0
2015-May-24 21:33N 40°49' E 014°07'0 0.0
2015-May-24 20:34N 40°49' E 014°07'0 0.0
2015-May-24 19:33N 40°49' E 014°07'0 0.0
2015-May-24 18:33N 40°49' E 014°07'1 0.9
2015-May-24 17:33N 40°49' E 014°06'8 7.6
2015-May-24 16:33N 40°45' E 013°57'7 7.3
2015-May-24 15:33N 40°48' E 014°06'8 8.3
2015-May-24 14:33N 40°45' E 013°56'0 0.0
2015-May-24 13:33N 40°45' E 013°56'0 0.0
2015-May-24 12:34N 40°45' E 013°56'6 6.0
2015-May-24 11:33N 40°46' E 014°04'3 2.6
2015-May-24 10:33N 40°46' E 014°01'1 1.5
2015-May-24 09:33N 40°46' E 014°03'5 4.6
2015-May-24 08:33N 40°49' E 014°07'9 9.5
2015-May-24 07:33N 40°45' E 013°56'8 8.1
2015-May-24 06:33N 40°48' E 014°06'2 1.6
2015-May-24 05:33N 40°49' E 014°07'0 0.0
2015-May-24 04:33N 40°49' E 014°07'0 0.0
2015-May-24 03:33N 40°49' E 014°07'0 0.0
2015-May-24 02:33N 40°49' E 014°07'0 0.0
2015-May-24 01:33N 40°49' E 014°07'0 0.0
2015-May-24 00:33N 40°49' E 014°07'0 0.0
2015-May-23 23:33N 40°49' E 014°07'0 0.0
2015-May-23 22:33N 40°49' E 014°07'0 0.0
2015-May-23 21:33N 40°49' E 014°07'0 0.0
2015-May-23 20:33N 40°49' E 014°07'0 0.0
2015-May-23 19:33N 40°49' E 014°07'0 0.0
2015-May-23 18:33N 40°49' E 014°07'1 0.5
2015-May-23 17:33N 40°49' E 014°06'9 8.9
2015-May-23 16:33N 40°45' E 013°56'9 8.7
2015-May-23 15:33N 40°49' E 014°06'9 8.9
2015-May-23 14:33N 40°45' E 013°56'0 0.0
2015-May-23 13:33N 40°45' E 013°56'0 0.0
2015-May-23 12:33N 40°45' E 013°56'7 6.9
2015-May-23 11:33N 40°47' E 014°05'4 3.6
2015-May-23 10:33N 40°46' E 014°00'1 0.7
2015-May-23 09:33N 40°46' E 014°01'5 5.4
2015-May-23 08:33N 40°49' E 014°07'9 9.4
2015-May-23 07:33N 40°45' E 013°56'8 7.9
2015-May-23 06:33N 40°48' E 014°06'2 1.9
2015-May-23 05:33N 40°49' E 014°07'0 0.0
2015-May-23 04:33N 40°49' E 014°07'0 0.0
2015-May-23 03:31N 40°49' E 014°07'0 0.0
2015-May-23 02:33N 40°49' E 014°07'0 0.0
2015-May-23 01:33N 40°49' E 014°07'0 0.0
2015-May-23 00:33N 40°49' E 014°07'0 0.0
2015-May-22 23:33N 40°49' E 014°07'0 0.0
2015-May-22 22:33N 40°49' E 014°07'9 1.0
2015-May-22 13:34N 40°45' E 013°56'0 0.0
2015-May-22 12:33N 40°45' E 013°56'6 6.2
2015-May-22 11:33N 40°47' E 014°04'3 3.0
2015-May-22 10:33N 40°46' E 014°00'0 0.4
2015-May-22 09:33N 40°46' E 014°01'5 5.3
2015-May-22 08:32N 40°49' E 014°07'9 9.3
2015-May-22 07:33N 40°45' E 013°56'8 8.2
2015-May-22 06:33N 40°48' E 014°06'1 1.4
2015-May-22 05:33N 40°49' E 014°07'0 0.0
2015-May-22 04:33N 40°49' E 014°07'0 0.0
2015-May-22 03:33N 40°49' E 014°07'0 0.0
2015-May-22 02:33N 40°49' E 014°07'0 0.0
2015-May-22 01:33N 40°49' E 014°07'0 0.0
2015-May-22 00:33N 40°49' E 014°07'0 0.0
2015-May-21 23:33N 40°49' E 014°07'0 0.0
2015-May-21 22:33N 40°49' E 014°07'0 0.0
2015-May-21 21:33N 40°49' E 014°07'0 0.0
2015-May-21 20:32N 40°49' E 014°07'0 0.0
2015-May-21 19:33N 40°49' E 014°07'0 0.0
2015-May-21 18:34N 40°49' E 014°07'0 0.0
2015-May-21 17:33N 40°49' E 014°07'0 0.0
2015-May-21 16:33N 40°49' E 014°07'0 0.0
2015-May-21 15:33N 40°49' E 014°07'0 0.0
2015-May-21 14:33N 40°49' E 014°07'0 0.0
2015-May-21 13:34N 40°49' E 014°07'0 0.0
2015-May-21 12:34N 40°49' E 014°07'0 0.0
2015-May-21 11:33N 40°49' E 014°07'0 0.0
2015-May-21 10:33N 40°49' E 014°07'0 0.0
2015-May-21 09:32N 40°49' E 014°07'0 0.4
2015-May-21 08:33N 40°49' E 014°07'9 9.2
2015-May-21 07:33N 40°45' E 013°56'8 8.3
2015-May-21 06:33N 40°48' E 014°06'1 1.4
2015-May-21 05:33N 40°49' E 014°07'0 0.0
2015-May-21 04:33N 40°49' E 014°07'0 0.0
2015-May-21 03:33N 40°49' E 014°07'0 0.0
2015-May-21 02:33N 40°49' E 014°07'0 0.0
2015-May-21 01:33N 40°49' E 014°07'0 0.0
2015-May-21 00:33N 40°49' E 014°07'0 0.0
2015-May-20 23:33N 40°49' E 014°07'0 0.0
2015-May-20 22:33N 40°49' E 014°07'0 0.0
2015-May-20 21:33N 40°49' E 014°07'0 0.0
2015-May-20 20:33N 40°49' E 014°07'0 0.0
2015-May-20 19:33N 40°49' E 014°07'0 0.0
2015-May-20 18:33N 40°49' E 014°07'0 0.4
2015-May-20 17:33N 40°49' E 014°07'9 9.0
2015-May-20 16:33N 40°45' E 013°56'9 8.6
2015-May-20 15:33N 40°49' E 014°06'9 8.8
2015-May-20 14:33N 40°45' E 013°56'0 0.0
2015-May-20 13:33N 40°45' E 013°56'0 0.0
2015-May-20 12:33N 40°45' E 013°56'7 6.6
2015-May-20 11:33N 40°47' E 014°05'3 3.4
2015-May-20 10:33N 40°46' E 014°00'1 0.9
2015-May-20 09:33N 40°46' E 014°01'5 4.6
2015-May-20 08:30N 40°49' E 014°06'9 9.6
2015-May-20 07:33N 40°45' E 013°56'8 8.0
2015-May-20 06:33N 40°48' E 014°06'2 1.6
2015-May-20 05:33N 40°49' E 014°07'0 0.0
2015-May-20 04:33N 40°49' E 014°07'0 0.0
2015-May-20 03:33N 40°49' E 014°07'0 0.0
2015-May-20 02:31N 40°49' E 014°07'0 0.0
2015-May-20 01:33N 40°49' E 014°07'0 0.0
2015-May-20 00:30N 40°49' E 014°07'0 0.0
2015-May-19 23:33N 40°49' E 014°07'0 0.0
2015-May-19 22:33N 40°49' E 014°07'0 0.0
2015-May-19 21:34N 40°49' E 014°07'0 0.0
2015-May-19 20:33N 40°49' E 014°07'0 0.0
2015-May-19 19:32N 40°49' E 014°07'0 0.0
2015-May-19 18:33N 40°49' E 014°07'0 0.5
2015-May-19 17:33N 40°49' E 014°06'9 8.9
2015-May-19 16:33N 40°45' E 013°56'9 8.8
2015-May-19 15:33N 40°49' E 014°06'9 8.9
2015-May-19 14:33N 40°45' E 013°56'0 0.0
2015-May-19 13:32N 40°45' E 013°56'0 0.0
2015-May-19 12:34N 40°45' E 013°56'6 6.3
2015-May-19 11:33N 40°47' E 014°04'3 2.9
2015-May-19 10:33N 40°46' E 014°01'2 1.8
2015-May-19 09:33N 40°46' E 014°03'4 4.2
2015-May-19 08:33N 40°49' E 014°07'9 9.2
2015-May-19 07:33N 40°45' E 013°56'8 8.1
2015-May-19 06:33N 40°48' E 014°06'2 1.7
2015-May-19 05:33N 40°49' E 014°07'0 0.0
2015-May-19 04:32N 40°49' E 014°07'0 0.0
2015-May-19 03:33N 40°49' E 014°07'0 0.0
2015-May-19 02:33N 40°49' E 014°07'0 0.0
2015-May-19 01:33N 40°49' E 014°07'0 0.0
2015-May-19 00:33N 40°49' E 014°07'0 0.0
2015-May-18 23:33N 40°49' E 014°07'0 0.0
2015-May-18 22:33N 40°49' E 014°07'0 0.0
2015-May-18 21:33N 40°49' E 014°07'0 0.0
2015-May-18 20:33N 40°49' E 014°07'0 0.0
2015-May-18 19:33N 40°49' E 014°07'0 0.0
2015-May-18 18:33N 40°49' E 014°07'1 0.5
2015-May-18 17:33N 40°49' E 014°06'9 8.8
2015-May-18 16:33N 40°45' E 013°56'9 8.9
2015-May-18 15:33N 40°49' E 014°06'9 8.9
2015-May-18 14:33N 40°45' E 013°56'0 0.0
2015-May-18 13:33N 40°45' E 013°56'0 0.0
2015-May-18 12:33N 40°45' E 013°56'7 6.6
2015-May-18 11:33N 40°47' E 014°05'4 3.6
2015-May-18 10:33N 40°46' E 013°60'4 3.9
2015-May-18 09:33N 40°47' E 014°05'3 3.2
2015-May-18 08:33N 40°49' E 014°07'9 9.4
2015-May-18 07:32N 40°45' E 013°56'8 8.2
2015-May-18 06:32N 40°48' E 014°06'1 1.5
2015-May-18 05:33N 40°49' E 014°07'0 0.0
2015-May-18 04:33N 40°49' E 014°07'0 0.0
2015-May-18 03:33N 40°49' E 014°07'0 0.0
2015-May-18 02:33N 40°49' E 014°07'0 0.0
2015-May-18 01:33N 40°49' E 014°07'0 0.0
2015-May-18 00:31N 40°49' E 014°07'0 0.0
2015-May-17 23:33N 40°49' E 014°07'0 0.0
2015-May-17 22:33N 40°49' E 014°07'0 0.0
2015-May-17 21:33N 40°49' E 014°07'0 0.0
2015-May-17 20:33N 40°49' E 014°07'0 0.0
2015-May-17 19:32N 40°49' E 014°07'0 0.0
2015-May-17 18:33N 40°49' E 014°07'0 0.3
2015-May-17 17:33N 40°49' E 014°07'9 8.7
2015-May-17 16:34N 40°45' E 013°57'8 8.0
2015-May-17 15:33N 40°49' E 014°06'8 8.5
2015-May-17 14:33N 40°45' E 013°56'0 0.0
2015-May-17 13:34N 40°45' E 013°56'0 0.0
2015-May-17 12:34N 40°45' E 013°56'8 7.6
2015-May-17 11:34N 40°47' E 014°06'4 3.8
2015-May-17 10:34N 40°46' E 014°01'0 0.1
2015-May-17 09:32N 40°46' E 014°01'6 5.7
2015-May-17 08:33N 40°49' E 014°07'9 9.4
2015-May-17 07:33N 40°45' E 013°56'8 8.2
2015-May-17 06:33N 40°48' E 014°06'1 1.5
2015-May-17 05:33N 40°49' E 014°07'0 0.0
2015-May-17 04:33N 40°49' E 014°07'0 0.0
2015-May-17 03:33N 40°49' E 014°07'0 0.0
2015-May-17 02:33N 40°49' E 014°07'0 0.0
2015-May-17 01:33N 40°49' E 014°07'0 0.0
2015-May-17 00:33N 40°49' E 014°07'0 0.0
2015-May-16 23:32N 40°49' E 014°07'0 0.0
2015-May-16 22:33N 40°49' E 014°07'0 0.0
2015-May-16 21:33N 40°49' E 014°07'0 0.0
2015-May-16 20:34N 40°49' E 014°07'0 0.0
2015-May-16 19:33N 40°49' E 014°07'0 0.0
2015-May-16 18:33N 40°49' E 014°07'1 0.7
2015-May-16 17:32N 40°49' E 014°06'8 7.7
2015-May-16 16:33N 40°45' E 013°58'7 7.3
2015-May-16 15:33N 40°48' E 014°06'8 8.3
2015-May-16 14:33N 40°45' E 013°56'0 0.0
2015-May-16 13:33N 40°45' E 013°56'0 0.0
2015-May-16 12:33N 40°45' E 013°56'6 6.3
2015-May-16 11:33N 40°46' E 014°04'4 3.7
2015-May-16 10:33N 40°44' E 014°00'1 1.1
2015-May-16 09:34N 40°45' E 014°02'6 5.9
2015-May-16 08:33N 40°49' E 014°07'9 9.1
2015-May-16 07:33N 40°45' E 013°56'9 8.6
2015-May-16 06:33N 40°49' E 014°06'1 0.9
2015-May-16 05:33N 40°49' E 014°07'0 0.0
2015-May-16 04:32N 40°49' E 014°07'0 0.0
2015-May-16 03:33N 40°49' E 014°07'0 0.0
2015-May-16 02:33N 40°49' E 014°07'0 0.0
2015-May-16 01:32N 40°49' E 014°07'0 0.0
2015-May-16 00:32N 40°49' E 014°07'0 0.0
2015-May-15 23:33N 40°49' E 014°07'0 0.0
2015-May-15 22:33N 40°49' E 014°07'0 0.0
2015-May-15 21:33N 40°49' E 014°07'0 0.0
2015-May-15 20:33N 40°49' E 014°07'0 0.0
2015-May-15 19:31N 40°49' E 014°07'0 0.0
2015-May-15 18:33N 40°49' E 014°07'1 0.7
2015-May-15 17:33N 40°49' E 014°06'9 8.7
2015-May-15 16:33N 40°45' E 013°56'9 9.0
2015-May-15 15:33N 40°49' E 014°07'9 9.0
2015-May-15 14:33N 40°45' E 013°56'0 0.0
2015-May-15 13:33N 40°45' E 013°56'0 0.0
2015-May-15 12:33N 40°45' E 013°56'8 8.3
2015-May-15 11:33N 40°48' E 014°06'5 5.5
2015-May-15 10:34N 40°46' E 013°60'  

Dump ship's entire track history